createdAt,value
2022-08-17T00:00:34.570Z,5.18
2022-08-17T00:05:43.768Z,5.65
2022-08-17T00:10:46.691Z,5.10
2022-08-17T00:15:48.611Z,5.30
2022-08-17T00:20:50.403Z,5.68
2022-08-17T00:25:53.456Z,4.90
2022-08-17T00:30:55.349Z,4.88
2022-08-17T00:35:58.567Z,5.22
2022-08-17T00:41:13.153Z,4.97
2022-08-17T00:46:16.857Z,5.18
2022-08-17T00:51:41.887Z,5.57
2022-08-17T00:56:47.961Z,5.63
2022-08-17T01:01:50.672Z,5.82
2022-08-17T01:06:53.264Z,5.88
2022-08-17T01:11:54.953Z,5.28
2022-08-17T01:16:56.698Z,5.32
2022-08-17T01:22:12.967Z,4.97
2022-08-17T01:27:16.125Z,4.75
2022-08-17T01:32:20.267Z,5.22
2022-08-17T01:37:35.500Z,5.18
2022-08-17T01:42:44.640Z,5.78
2022-08-17T01:47:46.420Z,5.65
2022-08-17T01:52:51.727Z,6.13
2022-08-17T01:57:53.760Z,5.13
2022-08-17T02:02:55.474Z,5.63
2022-08-17T02:08:00.448Z,5.80
2022-08-17T02:13:04.504Z,5.40
2022-08-17T02:18:06.779Z,5.70
2022-08-17T02:23:10.642Z,6.20
2022-08-17T02:28:12.453Z,6.10
2022-08-17T02:33:14.549Z,5.70
2022-08-17T02:38:17.463Z,5.68
2022-08-17T02:43:20.782Z,5.80
2022-08-17T02:48:30.627Z,6.13
2022-08-17T02:53:36.120Z,6.38
2022-08-17T02:58:38.256Z,5.53
2022-08-17T03:03:40.884Z,5.80
2022-08-17T03:08:42.548Z,6.43
2022-08-17T03:13:44.219Z,6.18
2022-08-17T03:18:46.073Z,5.28
2022-08-17T03:23:47.833Z,5.65
2022-08-17T03:28:56.229Z,6.03
2022-08-17T03:33:57.936Z,5.85
2022-08-17T03:39:00.516Z,6.20
2022-08-17T03:44:02.496Z,5.88
2022-08-17T03:49:25.048Z,5.70
2022-08-17T03:54:45.204Z,5.22
2022-08-17T03:59:47.666Z,6.45
2022-08-17T04:04:53.895Z,7.20
2022-08-17T04:09:55.752Z,8.02
2022-08-17T04:14:57.452Z,6.55
2022-08-17T04:19:59.107Z,8.25
2022-08-17T04:25:05.392Z,7.85
2022-08-17T04:30:07.724Z,6.72
2022-08-17T04:35:09.662Z,8.32
2022-08-17T04:40:30.660Z,6.43
2022-08-17T04:45:32.740Z,5.68
2022-08-17T04:50:36.522Z,6.38
2022-08-17T04:55:41.943Z,5.97
2022-08-17T05:00:44.039Z,5.35
2022-08-17T05:05:51.276Z,5.30
2022-08-17T05:10:53.008Z,5.50
2022-08-17T05:16:02.203Z,4.97
2022-08-17T05:21:04.470Z,4.45
2022-08-17T05:26:07.892Z,5.45
2022-08-17T05:31:14.071Z,5.38
2022-08-17T05:36:41.657Z,5.35
2022-08-17T05:41:37.743Z,5.55
2022-08-17T05:46:43.540Z,6.95
2022-08-17T05:51:51.132Z,5.38
2022-08-17T05:57:02.657Z,4.93
2022-08-17T06:02:18.909Z,4.40
2022-08-17T06:07:22.831Z,4.75
2022-08-17T06:12:24.440Z,4.20
2022-08-17T06:17:28.307Z,4.68
2022-08-17T06:22:35.894Z,4.05
2022-08-17T06:27:42.922Z,4.43
2022-08-17T06:32:48.163Z,4.00
2022-08-17T06:38:17.311Z,4.20
2022-08-17T06:43:46.167Z,4.47
2022-08-17T06:49:07.506Z,4.40
2022-08-17T06:54:25.472Z,4.18
2022-08-17T06:59:55.279Z,3.90
2022-08-17T07:05:01.801Z,3.15
2022-08-17T07:10:03.792Z,4.65
2022-08-17T07:15:16.666Z,3.67
2022-08-17T07:20:22.498Z,4.03
2022-08-17T07:25:25.103Z,3.35
2022-08-17T07:30:49.872Z,3.80
2022-08-17T07:35:52.940Z,3.20
2022-08-17T07:41:04.923Z,3.28
2022-08-17T07:46:34.261Z,3.45
2022-08-17T07:51:40.902Z,4.85
2022-08-17T07:56:50.396Z,3.75
2022-08-17T08:01:57.407Z,2.85
2022-08-17T08:07:11.303Z,4.63
2022-08-17T08:12:24.772Z,3.70
2022-08-17T08:17:44.840Z,3.67
2022-08-17T08:22:56.285Z,4.00
2022-08-17T08:28:30.027Z,4.22
2022-08-17T08:33:57.529Z,3.15
2022-08-17T08:39:08.917Z,3.63
2022-08-17T08:44:59.719Z,3.50
2022-08-17T08:50:05.390Z,3.78
2022-08-17T08:55:32.349Z,4.10
2022-08-17T09:00:40.623Z,3.92
2022-08-17T09:06:03.742Z,3.65
2022-08-17T09:11:17.375Z,3.80
2022-08-17T09:16:37.925Z,3.60
2022-08-17T09:21:54.553Z,3.20
2022-08-17T09:27:13.505Z,3.53
2022-08-17T09:32:24.807Z,4.95
2022-08-17T09:38:03.935Z,3.60
2022-08-17T09:43:17.550Z,3.35
2022-08-17T09:53:37.386Z,2.85
2022-08-17T09:59:03.896Z,3.08
2022-08-17T10:04:29.497Z,3.33
2022-08-17T10:09:59.365Z,3.47
2022-08-17T10:15:34.668Z,3.33
2022-08-17T10:20:48.449Z,3.08
2022-08-17T10:26:14.524Z,2.70
2022-08-17T10:31:42.686Z,3.00
2022-08-17T10:36:59.149Z,2.83
2022-08-17T10:42:32.172Z,3.17
2022-08-17T10:48:06.076Z,2.72
2022-08-17T10:53:08.420Z,2.58
2022-08-17T10:58:22.088Z,2.63
2022-08-17T11:03:25.588Z,3.17
2022-08-17T11:08:57.553Z,3.33
2022-08-17T11:14:17.593Z,2.83
2022-08-17T11:19:44.779Z,2.60
2022-08-17T11:24:51.467Z,3.20
2022-08-17T11:30:01.820Z,3.00
2022-08-17T11:35:22.281Z,2.58
2022-08-17T11:40:43.183Z,2.70
2022-08-17T11:46:13.664Z,2.80
2022-08-17T11:51:34.199Z,3.00
2022-08-17T11:56:42.517Z,2.65
2022-08-17T12:01:46.987Z,2.97
2022-08-17T12:06:57.015Z,3.00
2022-08-17T12:12:31.371Z,2.20
2022-08-17T12:17:41.183Z,2.88
2022-08-17T12:23:09.651Z,2.75
2022-08-17T12:28:23.873Z,2.70
2022-08-17T12:33:28.775Z,2.60
2022-08-17T12:38:34.750Z,3.90
2022-08-17T12:43:36.566Z,2.65
2022-08-17T12:48:38.256Z,4.63
2022-08-17T12:53:42.434Z,2.53
2022-08-17T12:58:54.475Z,2.78
2022-08-17T13:03:59.789Z,3.03
2022-08-17T13:09:14.779Z,2.50
2022-08-17T13:14:18.634Z,2.72
2022-08-17T13:19:40.038Z,3.53
2022-08-17T13:24:53.281Z,4.30
2022-08-17T13:30:01.442Z,2.95
2022-08-17T13:35:32.835Z,2.50
2022-08-17T13:40:52.238Z,2.35
2022-08-17T13:46:06.939Z,2.80
2022-08-17T13:51:23.505Z,2.70
2022-08-17T13:56:33.374Z,2.83
2022-08-17T14:01:53.585Z,2.80
2022-08-17T14:07:00.601Z,2.72
2022-08-17T14:12:04.735Z,2.88
2022-08-17T14:17:07.908Z,2.40
2022-08-17T14:22:18.265Z,3.03
2022-08-17T14:27:21.143Z,2.80
2022-08-17T14:32:26.722Z,2.50
2022-08-17T14:37:29.961Z,2.60
2022-08-17T14:42:33.553Z,2.55
2022-08-17T14:47:36.976Z,2.95
2022-08-17T14:52:42.367Z,2.92
2022-08-17T14:57:45.062Z,2.30
2022-08-17T15:02:53.841Z,2.50
2022-08-17T15:07:55.864Z,2.40
2022-08-17T15:12:58.009Z,2.78
2022-08-17T15:18:00.034Z,2.78
2022-08-17T15:23:02.237Z,2.42
2022-08-17T15:28:04.187Z,2.60
2022-08-17T15:33:05.848Z,2.95
2022-08-17T15:38:12.091Z,2.35
2022-08-17T15:43:26.453Z,2.95
2022-08-17T15:48:40.822Z,2.50
2022-08-17T15:53:45.489Z,3.03
2022-08-17T15:58:48.585Z,2.45
2022-08-17T16:04:06.809Z,2.90
2022-08-17T16:09:09.218Z,2.67
2022-08-17T16:14:10.852Z,3.03
2022-08-17T16:19:16.295Z,3.17
2022-08-17T16:24:17.962Z,2.97
2022-08-17T16:29:21.444Z,3.00
2022-08-17T16:34:23.285Z,2.70
2022-08-17T16:39:27.498Z,2.78
2022-08-17T16:44:30.696Z,2.25
2022-08-17T16:49:36.902Z,2.58
2022-08-17T16:54:43.763Z,2.47
2022-08-17T16:59:50.348Z,2.78
2022-08-17T17:05:14.495Z,2.72
2022-08-17T17:10:20.273Z,2.60
2022-08-17T17:15:28.307Z,3.05
2022-08-17T17:20:40.500Z,3.00
2022-08-17T17:26:11.629Z,3.03
2022-08-17T17:31:17.840Z,2.90
2022-08-17T17:36:19.461Z,2.78
2022-08-17T17:41:47.302Z,3.47
2022-08-17T17:46:54.513Z,2.95
2022-08-17T17:52:10.055Z,3.63
2022-08-17T17:57:24.625Z,2.47
2022-08-17T18:02:47.418Z,2.75
2022-08-17T18:08:22.013Z,2.65
2022-08-17T18:14:02.256Z,2.90
2022-08-17T18:19:03.892Z,3.00
2022-08-17T18:24:10.579Z,3.30
2022-08-17T18:29:21.260Z,3.20
2022-08-17T18:39:47.117Z,3.28
2022-08-17T18:44:52.995Z,4.00
2022-08-17T18:50:24.082Z,4.13
2022-08-17T18:55:31.440Z,3.63
2022-08-17T19:00:38.409Z,4.03
2022-08-17T19:05:45.118Z,3.60
2022-08-17T19:10:50.558Z,4.45
2022-08-17T19:16:11.937Z,4.07
2022-08-17T19:21:22.913Z,3.85
2022-08-17T19:26:54.199Z,4.30
2022-08-17T19:31:58.635Z,4.32
2022-08-17T19:37:06.977Z,4.03
2022-08-17T19:42:47.337Z,4.78
2022-08-17T19:48:11.699Z,4.10
2022-08-17T19:53:54.181Z,4.57
2022-08-17T19:59:13.314Z,4.47
2022-08-17T20:04:32.792Z,4.30
2022-08-17T20:09:34.644Z,4.95
2022-08-17T20:14:53.567Z,4.90
2022-08-17T20:20:07.584Z,4.45
2022-08-17T20:25:30.998Z,4.68
2022-08-17T20:30:38.045Z,4.07
2022-08-17T20:35:59.770Z,4.07
2022-08-17T20:41:04.476Z,4.55
2022-08-17T20:46:30.268Z,4.30
2022-08-17T20:52:07.763Z,5.03
2022-08-17T20:57:14.185Z,4.45
2022-08-17T21:02:21.855Z,4.80
2022-08-17T21:07:29.408Z,4.78
2022-08-17T21:13:21.889Z,4.60
2022-08-17T21:18:38.797Z,4.57
2022-08-17T21:24:01.144Z,4.70
2022-08-17T21:29:31.358Z,4.78
2022-08-17T21:34:38.939Z,4.47
2022-08-17T21:39:41.401Z,4.90
2022-08-17T21:44:49.079Z,4.88
2022-08-17T21:49:55.136Z,4.20
2022-08-17T21:55:02.349Z,4.90
2022-08-17T22:00:15.490Z,4.22
2022-08-17T22:05:28.263Z,4.72
2022-08-17T22:10:51.500Z,4.57
2022-08-17T22:16:28.770Z,4.82
2022-08-17T22:21:30.866Z,5.30
2022-08-17T22:27:03.598Z,5.10
2022-08-17T22:32:05.320Z,4.75
2022-08-17T22:37:27.565Z,4.85
2022-08-17T22:42:29.455Z,4.93
2022-08-17T22:47:38.907Z,5.03
2022-08-17T22:53:03.276Z,4.80
2022-08-17T22:58:35.803Z,5.18
2022-08-17T23:03:54.461Z,5.60
2022-08-17T23:08:56.693Z,4.97
2022-08-17T23:13:58.355Z,5.20
2022-08-17T23:19:00.013Z,4.82
2022-08-17T23:24:02.267Z,5.68
2022-08-17T23:29:09.030Z,5.18
2022-08-17T23:34:14.040Z,5.50
2022-08-17T23:39:15.678Z,5.53
2022-08-17T23:44:27.727Z,4.80
2022-08-17T23:49:31.768Z,4.97
2022-08-17T23:54:43.618Z,5.07
2022-08-17T23:59:45.917Z,4.95
